sensor_id;sensor_type;location;lat;lon;timestamp;pressure;altitude;pressure_sealevel;temperature;humidity
60489;BME280;46331;49.252;8.904;2023-05-23T00:00:03;99542.44;;;17.94;98.79
60489;BME280;46331;49.252;8.904;2023-05-23T00:00:52;99546.50;;;17.92;99.20
60489;BME280;46331;49.252;8.904;2023-05-23T00:01:33;99537.16;;;17.89;98.63
60489;BME280;46331;49.252;8.904;2023-05-23T00:02:16;99535.25;;;17.90;99.15
60489;BME280;46331;49.252;8.904;2023-05-23T00:02:57;99538.47;;;17.92;98.90
60489;BME280;46331;49.252;8.904;2023-05-23T00:03:37;99537.06;;;17.94;98.78
60489;BME280;46331;49.252;8.904;2023-05-23T00:04:18;99533.09;;;17.92;98.10
60489;BME280;46331;49.252;8.904;2023-05-23T00:04:59;99535.50;;;17.93;97.55
60489;BME280;46331;49.252;8.904;2023-05-23T00:05:42;99530.91;;;17.94;97.36
60489;BME280;46331;49.252;8.904;2023-05-23T00:06:23;99532.81;;;17.93;96.60
60489;BME280;46331;49.252;8.904;2023-05-23T00:07:03;99527.75;;;17.92;95.95
60489;BME280;46331;49.252;8.904;2023-05-23T00:07:44;99529.88;;;17.90;95.08
60489;BME280;46331;49.252;8.904;2023-05-23T00:08:25;99535.81;;;17.86;94.90
60489;BME280;46331;49.252;8.904;2023-05-23T00:09:05;99535.03;;;17.86;95.21
60489;BME280;46331;49.252;8.904;2023-05-23T00:09:46;99536.38;;;17.83;94.70
60489;BME280;46331;49.252;8.904;2023-05-23T00:10:27;99536.38;;;17.83;94.58
60489;BME280;46331;49.252;8.904;2023-05-23T00:11:07;99536.97;;;17.80;94.52
60489;BME280;46331;49.252;8.904;2023-05-23T00:11:48;99532.47;;;17.76;94.57
60489;BME280;46331;49.252;8.904;2023-05-23T00:12:28;99527.41;;;17.74;94.51
60489;BME280;46331;49.252;8.904;2023-05-23T00:13:10;99536.25;;;17.75;94.62
60489;BME280;46331;49.252;8.904;2023-05-23T00:13:52;99528.50;;;17.73;94.06
60489;BME280;46331;49.252;8.904;2023-05-23T00:14:33;99527.97;;;17.71;94.28
60489;BME280;46331;49.252;8.904;2023-05-23T00:15:14;99529.66;;;17.67;94.32
60489;BME280;46331;49.252;8.904;2023-05-23T00:15:55;99537.41;;;17.68;94.85
60489;BME280;46331;49.252;8.904;2023-05-23T00:16:35;99531.53;;;17.66;94.70
60489;BME280;46331;49.252;8.904;2023-05-23T00:17:20;99535.59;;;17.64;94.11
60489;BME280;46331;49.252;8.904;2023-05-23T00:18:04;99537.75;;;17.62;94.60
60489;BME280;46331;49.252;8.904;2023-05-23T00:18:48;99533.50;;;17.61;94.55
60489;BME280;46331;49.252;8.904;2023-05-23T00:19:29;99531.88;;;17.60;94.67
60489;BME280;46331;49.252;8.904;2023-05-23T00:20:10;99532.97;;;17.59;94.64
60489;BME280;46331;49.252;8.904;2023-05-23T00:20:51;99542.91;;;17.58;94.64
60489;BME280;46331;49.252;8.904;2023-05-23T00:21:32;99539.44;;;17.58;93.88
60489;BME280;46331;49.252;8.904;2023-05-23T00:22:12;99536.75;;;17.58;93.85
60489;BME280;46331;49.252;8.904;2023-05-23T00:22:55;99547.47;;;17.58;93.47
60489;BME280;46331;49.252;8.904;2023-05-23T00:23:38;99533.25;;;17.57;93.29
60489;BME280;46331;49.252;8.904;2023-05-23T00:24:21;99537.03;;;17.56;93.35
60489;BME280;46331;49.252;8.904;2023-05-23T00:25:02;99546.44;;;17.54;93.03
60489;BME280;46331;49.252;8.904;2023-05-23T00:25:43;99543.28;;;17.51;93.03
60489;BME280;46331;49.252;8.904;2023-05-23T00:26:27;99549.19;;;17.48;93.46
60489;BME280;46331;49.252;8.904;2023-05-23T00:27:09;99547.31;;;17.49;93.10
60489;BME280;46331;49.252;8.904;2023-05-23T00:27:50;99541.16;;;17.48;93.19
60489;BME280;46331;49.252;8.904;2023-05-23T00:28:30;99547.31;;;17.49;93.07
60489;BME280;46331;49.252;8.904;2023-05-23T00:29:11;99545.41;;;17.49;92.85
60489;BME280;46331;49.252;8.904;2023-05-23T00:29:55;99546.81;;;17.47;92.76
60489;BME280;46331;49.252;8.904;2023-05-23T00:30:36;99552.75;;;17.44;92.72
60489;BME280;46331;49.252;8.904;2023-05-23T00:31:17;99543.38;;;17.41;93.12
60489;BME280;46331;49.252;8.904;2023-05-23T00:31:57;99553.31;;;17.41;92.59
60489;BME280;46331;49.252;8.904;2023-05-23T00:32:38;99542.34;;;17.37;93.04
60489;BME280;46331;49.252;8.904;2023-05-23T00:33:18;99551.50;;;17.36;93.65
60489;BME280;46331;49.252;8.904;2023-05-23T00:34:01;99544.53;;;17.35;93.83
60489;BME280;46331;49.252;8.904;2023-05-23T00:34:41;99554.75;;;17.33;94.49
60489;BME280;46331;49.252;8.904;2023-05-23T00:35:23;99550.75;;;17.30;94.26
60489;BME280;46331;49.252;8.904;2023-05-23T00:36:05;99548.84;;;17.31;94.84
60489;BME280;46331;49.252;8.904;2023-05-23T00:36:45;99547.78;;;17.32;95.47
60489;BME280;46331;49.252;8.904;2023-05-23T00:37:29;99552.84;;;17.33;95.18
60489;BME280;46331;49.252;8.904;2023-05-23T00:38:11;99548.00;;;17.36;95.72
60489;BME280;46331;49.252;8.904;2023-05-23T00:38:52;99549.59;;;17.37;95.62
60489;BME280;46331;49.252;8.904;2023-05-23T00:39:33;99548.81;;;17.36;95.57
60489;BME280;46331;49.252;8.904;2023-05-23T00:40:14;99556.31;;;17.34;95.96
60489;BME280;46331;49.252;8.904;2023-05-23T00:40:54;99548.56;;;17.32;96.22
60489;BME280;46331;49.252;8.904;2023-05-23T00:41:35;99550.69;;;17.36;97.28
60489;BME280;46331;49.252;8.904;2023-05-23T00:42:17;99551.50;;;17.36;97.62
60489;BME280;46331;49.252;8.904;2023-05-23T00:42:57;99554.47;;;17.34;97.92
60489;BME280;46331;49.252;8.904;2023-05-23T00:43:38;99552.06;;;17.33;97.93
60489;BME280;46331;49.252;8.904;2023-05-23T00:44:19;99549.38;;;17.33;98.07
60489;BME280;46331;49.252;8.904;2023-05-23T00:45:00;99553.34;;;17.36;98.71
60489;BME280;46331;49.252;8.904;2023-05-23T00:45:40;99553.06;;;17.37;99.01
60489;BME280;46331;49.252;8.904;2023-05-23T00:46:21;99553.88;;;17.38;99.06
60489;BME280;46331;49.252;8.904;2023-05-23T00:47:02;99558.69;;;17.41;99.44
60489;BME280;46331;49.252;8.904;2023-05-23T00:47:43;99550.34;;;17.42;99.38
60489;BME280;46331;49.252;8.904;2023-05-23T00:48:25;99554.91;;;17.42;98.98
60489;BME280;46331;49.252;8.904;2023-05-23T00:49:06;99553.53;;;17.44;99.44
60489;BME280;46331;49.252;8.904;2023-05-23T00:49:47;99548.47;;;17.43;98.90
60489;BME280;46331;49.252;8.904;2023-05-23T00:50:28;99560.25;;;17.42;99.39
60489;BME280;46331;49.252;8.904;2023-05-23T00:51:09;99548.75;;;17.41;99.79
60489;BME280;46331;49.252;8.904;2023-05-23T00:51:50;99554.91;;;17.42;99.71
60489;BME280;46331;49.252;8.904;2023-05-23T00:52:31;99543.66;;;17.40;99.98
60489;BME280;46331;49.252;8.904;2023-05-23T00:53:12;99550.63;;;17.41;100.00
60489;BME280;46331;49.252;8.904;2023-05-23T00:53:53;99554.91;;;17.42;100.00
60489;BME280;46331;49.252;8.904;2023-05-23T00:54:35;99551.94;;;17.43;100.00
60489;BME280;46331;49.252;8.904;2023-05-23T00:55:15;99555.44;;;17.44;100.00
60489;BME280;46331;49.252;8.904;2023-05-23T00:55:56;99550.06;;;17.44;100.00
60489;BME280;46331;49.252;8.904;2023-05-23T00:56:37;99547.38;;;17.44;100.00
60489;BME280;46331;49.252;8.904;2023-05-23T00:57:18;99548.47;;;17.43;100.00
60489;BME280;46331;49.252;8.904;2023-05-23T00:57:59;99554.91;;;17.42;100.00
60489;BME280;46331;49.252;8.904;2023-05-23T00:58:39;99549.78;;;17.45;100.00
60489;BME280;46331;49.252;8.904;2023-05-23T00:59:21;99553.75;;;17.48;100.00
60489;BME280;46331;49.252;8.904;2023-05-23T01:00:04;99556.13;;;17.49;100.00
60489;BME280;46331;49.252;8.904;2023-05-23T01:00:48;99554.50;;;17.54;100.00
60489;BME280;46331;49.252;8.904;2023-05-23T01:01:29;99558.19;;;17.58;99.77
60489;BME280;46331;49.252;8.904;2023-05-23T01:02:10;99554.41;;;17.59;98.97
60489;BME280;46331;49.252;8.904;2023-05-23T01:02:52;99556.53;;;17.62;98.90
60489;BME280;46331;49.252;8.904;2023-05-23T01:03:32;99563.00;;;17.61;98.54
60489;BME280;46331;49.252;8.904;2023-05-23T01:04:13;99557.91;;;17.59;97.65
60489;BME280;46331;49.252;8.904;2023-05-23T01:04:55;99551.81;;;17.54;97.45
60489;BME280;46331;49.252;8.904;2023-05-23T01:05:36;99556.66;;;17.51;97.82
60489;BME280;46331;49.252;8.904;2023-05-23T01:06:16;99554.00;;;17.51;98.17
60489;BME280;46331;49.252;8.904;2023-05-23T01:06:58;99556.13;;;17.49;98.01
60489;BME280;46331;49.252;8.904;2023-05-23T01:07:40;99559.09;;;17.48;98.47
60489;BME280;46331;49.252;8.904;2023-05-23T01:08:21;99551.06;;;17.48;98.68
60489;BME280;46331;49.252;8.904;2023-05-23T01:09:02;99546.28;;;17.45;98.39
60489;BME280;46331;49.252;8.904;2023-05-23T01:09:43;99548.97;;;17.45;98.64
60489;BME280;46331;49.252;8.904;2023-05-23T01:10:29;99554.31;;;17.45;98.75
60489;BME280;46331;49.252;8.904;2023-05-23T01:11:23;99555.44;;;17.44;98.50
60489;BME280;46331;49.252;8.904;2023-05-23T01:12:20;99553.03;;;17.42;98.34
60489;BME280;46331;49.252;8.904;2023-05-23T01:13:19;99548.25;;;17.39;99.06
60489;BME280;46331;49.252;8.904;2023-05-23T01:14:09;99553.88;;;17.38;98.77
60489;BME280;46331;49.252;8.904;2023-05-23T01:15:20;99550.94;;;17.39;99.06
60489;BME280;46331;49.252;8.904;2023-05-23T01:16:27;99553.03;;;17.42;98.71
60489;BME280;46331;49.252;8.904;2023-05-23T01:17:16;99550.34;;;17.42;98.68
60489;BME280;46331;49.252;8.904;2023-05-23T01:18:04;99542.31;;;17.42;99.10
60489;BME280;46331;49.252;8.904;2023-05-23T01:18:54;99555.72;;;17.42;99.43
60489;BME280;46331;49.252;8.904;2023-05-23T01:19:58;99547.13;;;17.40;99.13
60489;BME280;46331;49.252;8.904;2023-05-23T01:20:43;99549.03;;;17.40;99.64
60489;BME280;46331;49.252;8.904;2023-05-23T01:21:25;99556.28;;;17.39;100.00
60489;BME280;46331;49.252;8.904;2023-05-23T01:22:13;99550.94;;;17.39;100.00
60489;BME280;46331;49.252;8.904;2023-05-23T01:23:09;99545.00;;;17.42;100.00
60489;BME280;46331;49.252;8.904;2023-05-23T01:26:16;99556.56;;;17.38;99.67
60489;BME280;46331;49.252;8.904;2023-05-23T01:27:58;99544.75;;;17.39;99.19
60489;BME280;46331;49.252;8.904;2023-05-23T01:28:45;99558.69;;;17.41;99.06
60489;BME280;46331;49.252;8.904;2023-05-23T01:29:35;99556.78;;;17.41;98.96
60489;BME280;46331;49.252;8.904;2023-05-23T01:30:18;99554.59;;;17.43;98.45
60489;BME280;46331;49.252;8.904;2023-05-23T01:31:02;99553.81;;;17.43;98.08
60489;BME280;46331;49.252;8.904;2023-05-23T01:31:44;99555.72;;;17.42;97.53
60489;BME280;46331;49.252;8.904;2023-05-23T01:32:26;99556.00;;;17.41;97.40
60489;BME280;46331;49.252;8.904;2023-05-23T01:33:09;99556.28;;;17.39;96.88
60489;BME280;46331;49.252;8.904;2023-05-23T01:33:51;99561.13;;;17.37;96.67
60489;BME280;46331;49.252;8.904;2023-05-23T01:34:35;99560.63;;;17.35;96.84
60489;BME280;46331;49.252;8.904;2023-05-23T01:35:21;99563.06;;;17.31;96.34
60489;BME280;46331;49.252;8.904;2023-05-23T01:36:04;99558.28;;;17.28;96.86
60489;BME280;46331;49.252;8.904;2023-05-23T01:36:49;99554.78;;;17.28;96.76
60489;BME280;46331;49.252;8.904;2023-05-23T01:37:29;99566.03;;;17.30;96.68
60489;BME280;46331;49.252;8.904;2023-05-23T01:38:10;99558.78;;;17.30;96.38
60489;BME280;46331;49.252;8.904;2023-05-23T01:38:50;99560.16;;;17.28;96.07
60489;BME280;46331;49.252;8.904;2023-05-23T01:39:31;99552.69;;;17.25;95.69
60489;BME280;46331;49.252;8.904;2023-05-23T01:40:13;99561.56;;;17.20;95.37
60489;BME280;46331;49.252;8.904;2023-05-23T01:40:53;99564.03;;;17.16;95.95
60489;BME280;46331;49.252;8.904;2023-05-23T01:41:34;99567.56;;;17.12;95.94
60489;BME280;46331;49.252;8.904;2023-05-23T01:42:14;99560.38;;;17.07;96.00
60489;BME280;46331;49.252;8.904;2023-05-23T01:42:55;99560.94;;;17.04;96.29
60489;BME280;46331;49.252;8.904;2023-05-23T01:43:39;99563.91;;;17.03;96.35
60489;BME280;46331;49.252;8.904;2023-05-23T01:44:20;99568.22;;;16.98;96.67
60489;BME280;46331;49.252;8.904;2023-05-23T01:45:01;99562.09;;;16.98;96.79
60489;BME280;46331;49.252;8.904;2023-05-23T01:45:42;99559.97;;;16.95;97.38
60489;BME280;46331;49.252;8.904;2023-05-23T01:46:23;99570.19;;;16.93;97.45
60489;BME280;46331;49.252;8.904;2023-05-23T01:47:07;99566.97;;;16.91;97.71
60489;BME280;46331;49.252;8.904;2023-05-23T01:47:49;99565.66;;;16.88;98.15
60489;BME280;46331;49.252;8.904;2023-05-23T01:48:30;99565.66;;;16.88;98.49
60489;BME280;46331;49.252;8.904;2023-05-23T01:49:13;99566.75;;;16.87;98.77
60489;BME280;46331;49.252;8.904;2023-05-23T01:49:55;99570.22;;;16.88;99.29
60489;BME280;46331;49.252;8.904;2023-05-23T01:50:37;99569.66;;;16.91;99.42
60489;BME280;46331;49.252;8.904;2023-05-23T01:51:18;99565.91;;;16.92;99.23
60489;BME280;46331;49.252;8.904;2023-05-23T01:52:00;99570.19;;;16.93;99.42
60489;BME280;46331;49.252;8.904;2023-05-23T01:53:07;99570.97;;;16.93;98.98
60489;BME280;46331;49.252;8.904;2023-05-23T01:53:50;99569.38;;;16.92;99.51
60489;BME280;46331;49.252;8.904;2023-05-23T01:54:31;99568.00;;;16.95;99.23
60489;BME280;46331;49.252;8.904;2023-05-23T01:55:15;99575.75;;;16.96;99.35
60489;BME280;46331;49.252;8.904;2023-05-23T01:55:58;99575.25;;;16.94;99.28
60489;BME280;46331;49.252;8.904;2023-05-23T01:56:43;99574.97;;;16.96;99.99
60489;BME280;46331;49.252;8.904;2023-05-23T01:57:25;99569.63;;;16.96;99.81
60489;BME280;46331;49.252;8.904;2023-05-23T01:58:08;99577.94;;;16.94;100.00
60489;BME280;46331;49.252;8.904;2023-05-23T01:58:49;99581.97;;;16.92;100.00
60489;BME280;46331;49.252;8.904;2023-05-23T01:59:29;99583.84;;;16.91;100.00
60489;BME280;46331;49.252;8.904;2023-05-23T02:00:11;99587.59;;;16.90;100.00
60489;BME280;46331;49.252;8.904;2023-05-23T02:00:54;99579.56;;;16.90;100.00
60489;BME280;46331;49.252;8.904;2023-05-23T02:01:36;99582.25;;;16.90;100.00
60489;BME280;46331;49.252;8.904;2023-05-23T02:02:17;99586.53;;;16.91;100.00
60489;BME280;46331;49.252;8.904;2023-05-23T02:02:58;99589.22;;;16.91;100.00
60489;BME280;46331;49.252;8.904;2023-05-23T02:03:38;99591.06;;;16.91;100.00
60489;BME280;46331;49.252;8.904;2023-05-23T02:04:20;99583.03;;;16.91;100.00
60489;BME280;46331;49.252;8.904;2023-05-23T02:05:01;99585.22;;;16.89;100.00
60489;BME280;46331;49.252;8.904;2023-05-23T02:05:42;99585.44;;;16.92;100.00
60489;BME280;46331;49.252;8.904;2023-05-23T02:06:23;99583.84;;;16.91;100.00
60489;BME280;46331;49.252;8.904;2023-05-23T02:07:03;99584.13;;;16.90;100.00
60489;BME280;46331;49.252;8.904;2023-05-23T02:07:45;99594.56;;;16.91;100.00
60489;BME280;46331;49.252;8.904;2023-05-23T02:08:25;99582.25;;;16.90;100.00
60489;BME280;46331;49.252;8.904;2023-05-23T02:09:06;99593.19;;;16.94;100.00
60489;BME280;46331;49.252;8.904;2023-05-23T02:09:48;99589.72;;;16.93;100.00
60489;BME280;46331;49.252;8.904;2023-05-23T02:10:29;99587.84;;;16.94;100.00
60489;BME280;46331;49.252;8.904;2023-05-23T02:11:09;99588.66;;;16.94;100.00
60489;BME280;46331;49.252;8.904;2023-05-23T02:11:50;99583.56;;;16.93;100.00
60489;BME280;46331;49.252;8.904;2023-05-23T02:12:31;99586.25;;;16.93;100.00
60489;BME280;46331;49.252;8.904;2023-05-23T02:13:12;99590.00;;;16.92;100.00
60489;BME280;46331;49.252;8.904;2023-05-23T02:13:53;99582.53;;;16.89;100.00
60489;BME280;46331;49.252;8.904;2023-05-23T02:14:34;99590.56;;;16.89;100.00
60489;BME280;46331;49.252;8.904;2023-05-23T02:15:17;99593.25;;;16.89;100.00
60489;BME280;46331;49.252;8.904;2023-05-23T02:15:58;99593.53;;;16.87;100.00
60489;BME280;46331;49.252;8.904;2023-05-23T02:16:38;99581.22;;;16.86;100.00
60489;BME280;46331;49.252;8.904;2023-05-23T02:17:19;99593.53;;;16.87;100.00
60489;BME280;46331;49.252;8.904;2023-05-23T02:18:01;99590.84;;;16.87;100.00
60489;BME280;46331;49.252;8.904;2023-05-23T02:18:42;99590.84;;;16.87;100.00
60489;BME280;46331;49.252;8.904;2023-05-23T02:19:26;99589.78;;;16.88;100.00
60489;BME280;46331;49.252;8.904;2023-05-23T02:20:07;99593.53;;;16.87;100.00
60489;BME280;46331;49.252;8.904;2023-05-23T02:20:48;99588.72;;;16.84;100.00
60489;BME280;46331;49.252;8.904;2023-05-23T02:21:28;99587.09;;;16.83;100.00
60489;BME280;46331;49.252;8.904;2023-05-23T02:22:10;99591.66;;;16.83;100.00
60489;BME280;46331;49.252;8.904;2023-05-23T02:22:51;99590.06;;;16.81;100.00
60489;BME280;46331;49.252;8.904;2023-05-23T02:23:31;99590.34;;;16.80;100.00
60489;BME280;46331;49.252;8.904;2023-05-23T02:24:12;99589.56;;;16.79;100.00
60489;BME280;46331;49.252;8.904;2023-05-23T02:24:52;99593.03;;;16.80;100.00
60489;BME280;46331;49.252;8.904;2023-05-23T02:25:33;99588.47;;;16.80;100.00
60489;BME280;46331;49.252;8.904;2023-05-23T02:26:13;99593.84;;;16.80;100.00
60489;BME280;46331;49.252;8.904;2023-05-23T02:26:56;99593.03;;;16.80;100.00
60489;BME280;46331;49.252;8.904;2023-05-23T02:27:36;99599.75;;;16.77;100.00
60489;BME280;46331;49.252;8.904;2023-05-23T02:28:17;99598.16;;;16.76;100.00
60489;BME280;46331;49.252;8.904;2023-05-23T02:28:58;99599.75;;;16.77;100.00
60489;BME280;46331;49.252;8.904;2023-05-23T02:29:38;99598.16;;;16.76;100.00
60489;BME280;46331;49.252;8.904;2023-05-23T02:30:19;99594.69;;;16.76;100.00
60489;BME280;46331;49.252;8.904;2023-05-23T02:31:01;99600.59;;;16.73;100.00
60489;BME280;46331;49.252;8.904;2023-05-23T02:31:41;99597.66;;;16.69;99.96
60489;BME280;46331;49.252;8.904;2023-05-23T02:32:22;99596.09;;;16.68;100.00
60489;BME280;46331;49.252;8.904;2023-05-23T02:33:06;99598.22;;;16.66;100.00
60489;BME280;46331;49.252;8.904;2023-05-23T02:33:47;99596.09;;;16.63;100.00
60489;BME280;46331;49.252;8.904;2023-05-23T02:34:28;99604.69;;;16.60;100.00
60489;BME280;46331;49.252;8.904;2023-05-23T02:35:08;99599.91;;;16.57;100.00
60489;BME280;46331;49.252;8.904;2023-05-23T02:35:50;99599.41;;;16.55;100.00
60489;BME280;46331;49.252;8.904;2023-05-23T02:36:31;99601.00;;;16.56;100.00
60489;BME280;46331;49.252;8.904;2023-05-23T02:37:13;99596.72;;;16.55;100.00
60489;BME280;46331;49.252;8.904;2023-05-23T02:37:54;99602.06;;;16.55;100.00
60489;BME280;46331;49.252;8.904;2023-05-23T02:38:34;99598.59;;;16.54;100.00
60489;BME280;46331;49.252;8.904;2023-05-23T02:39:15;99594.81;;;16.55;100.00
60489;BME280;46331;49.252;8.904;2023-05-23T02:39:56;99600.72;;;16.57;100.00
60489;BME280;46331;49.252;8.904;2023-05-23T02:40:36;99609.03;;;16.56;100.00
60489;BME280;46331;49.252;8.904;2023-05-23T02:41:17;99599.91;;;16.57;100.00
60489;BME280;46331;49.252;8.904;2023-05-23T02:41:58;99606.06;;;16.57;100.00
60489;BME280;46331;49.252;8.904;2023-05-23T02:42:39;99602.31;;;16.58;100.00
60489;BME280;46331;49.252;8.904;2023-05-23T02:43:20;99605.78;;;16.59;100.00
60489;BME280;46331;49.252;8.904;2023-05-23T02:44:01;99606.31;;;16.61;100.00
60489;BME280;46331;49.252;8.904;2023-05-23T02:44:42;99607.09;;;16.61;100.00
60489;BME280;46331;49.252;8.904;2023-05-23T02:45:22;99600.94;;;16.61;100.00
60489;BME280;46331;49.252;8.904;2023-05-23T02:46:03;99608.69;;;16.62;100.00
60489;BME280;46331;49.252;8.904;2023-05-23T02:46:44;99611.66;;;16.61;100.00
60489;BME280;46331;49.252;8.904;2023-05-23T02:47:25;99610.88;;;16.60;100.00
60489;BME280;46331;49.252;8.904;2023-05-23T02:48:05;99607.38;;;16.60;100.00
60489;BME280;46331;49.252;8.904;2023-05-23T02:48:46;99615.41;;;16.60;100.00
60489;BME280;46331;49.252;8.904;2023-05-23T02:49:26;99613.81;;;16.59;100.00
60489;BME280;46331;49.252;8.904;2023-05-23T02:50:07;99610.09;;;16.55;100.00
60489;BME280;46331;49.252;8.904;2023-05-23T02:50:48;99613.06;;;16.53;100.00
60489;BME280;46331;49.252;8.904;2023-05-23T02:51:29;99609.06;;;16.51;100.00
60489;BME280;46331;49.252;8.904;2023-05-23T02:52:10;99614.69;;;16.49;100.00
60489;BME280;46331;49.252;8.904;2023-05-23T02:52:51;99610.16;;;16.50;100.00
60489;BME280;46331;49.252;8.904;2023-05-23T02:53:32;99607.75;;;16.48;100.00
60489;BME280;46331;49.252;8.904;2023-05-23T02:54:13;99601.84;;;16.46;100.00
60489;BME280;46331;49.252;8.904;2023-05-23T02:54:53;99606.41;;;16.45;100.00
60489;BME280;46331;49.252;8.904;2023-05-23T02:55:34;99606.19;;;16.42;100.00
60489;BME280;46331;49.252;8.904;2023-05-23T02:56:16;99603.50;;;16.42;100.00
60489;BME280;46331;49.252;8.904;2023-05-23T02:56:56;99601.91;;;16.41;100.00
60489;BME280;46331;49.252;8.904;2023-05-23T02:57:37;99601.13;;;16.40;100.00
60489;BME280;46331;49.252;8.904;2023-05-23T02:58:18;99602.19;;;16.39;100.00
60489;BME280;46331;49.252;8.904;2023-05-23T02:58:59;99603.25;;;16.38;100.00
60489;BME280;46331;49.252;8.904;2023-05-23T02:59:40;99600.28;;;16.40;100.00
60489;BME280;46331;49.252;8.904;2023-05-23T03:00:21;99604.59;;;16.41;100.00
60489;BME280;46331;49.252;8.904;2023-05-23T03:01:06;99599.22;;;16.41;100.00
60489;BME280;46331;49.252;8.904;2023-05-23T03:01:47;99603.50;;;16.42;100.00
60489;BME280;46331;49.252;8.904;2023-05-23T03:02:28;99606.97;;;16.42;100.00
60489;BME280;46331;49.252;8.904;2023-05-23T03:03:08;99606.69;;;16.44;100.00
60489;BME280;46331;49.252;8.904;2023-05-23T03:03:49;99598.16;;;16.42;100.00
60489;BME280;46331;49.252;8.904;2023-05-23T03:04:30;99602.41;;;16.43;100.00
60489;BME280;46331;49.252;8.904;2023-05-23T03:05:10;99608.03;;;16.41;100.00
60489;BME280;46331;49.252;8.904;2023-05-23T03:05:51;99602.19;;;16.39;100.00
60489;BME280;46331;49.252;8.904;2023-05-23T03:06:31;99598.72;;;16.39;100.00
60489;BME280;46331;49.252;8.904;2023-05-23T03:07:13;99607.53;;;16.39;100.00
60489;BME280;46331;49.252;8.904;2023-05-23T03:07:54;99612.38;;;16.37;100.00
60489;BME280;46331;49.252;8.904;2023-05-23T03:08:35;99607.81;;;16.38;100.00
60489;BME280;46331;49.252;8.904;2023-05-23T03:09:16;99607.03;;;16.37;100.00
60489;BME280;46331;49.252;8.904;2023-05-23T03:09:57;99607.03;;;16.37;100.00
60489;BME280;46331;49.252;8.904;2023-05-23T03:10:37;99607.03;;;16.37;100.00
60489;BME280;46331;49.252;8.904;2023-05-23T03:11:18;99610.78;;;16.36;100.00
60489;BME280;46331;49.252;8.904;2023-05-23T03:11:58;99609.44;;;16.34;100.00
60489;BME280;46331;49.252;8.904;2023-05-23T03:12:39;99604.09;;;16.34;100.00
60489;BME280;46331;49.252;8.904;2023-05-23T03:13:21;99603.56;;;16.32;100.00
60489;BME280;46331;49.252;8.904;2023-05-23T03:14:01;99608.69;;;16.28;100.00
60489;BME280;46331;49.252;8.904;2023-05-23T03:14:43;99612.44;;;16.27;99.93
60489;BME280;46331;49.252;8.904;2023-05-23T03:15:24;99609.25;;;16.25;100.00
60489;BME280;46331;49.252;8.904;2023-05-23T03:16:04;99603.91;;;16.25;100.00
60489;BME280;46331;49.252;8.904;2023-05-23T03:16:45;99603.91;;;16.25;100.00
60489;BME280;46331;49.252;8.904;2023-05-23T03:17:26;99609.25;;;16.25;100.00
60489;BME280;46331;49.252;8.904;2023-05-23T03:18:07;99611.09;;;16.24;100.00
60489;BME280;46331;49.252;8.904;2023-05-23T03:18:47;99611.38;;;16.28;100.00
60489;BME280;46331;49.252;8.904;2023-05-23T03:19:30;99608.69;;;16.28;100.00
60489;BME280;46331;49.252;8.904;2023-05-23T03:20:11;99612.44;;;16.27;99.95
60489;BME280;46331;49.252;8.904;2023-05-23T03:20:52;99609.75;;;16.27;99.57
60489;BME280;46331;49.252;8.904;2023-05-23T03:21:36;99605.47;;;16.26;99.43
60489;BME280;46331;49.252;8.904;2023-05-23T03:22:16;99607.38;;;16.25;99.32
60489;BME280;46331;49.252;8.904;2023-05-23T03:22:57;99610.81;;;16.26;99.13
60489;BME280;46331;49.252;8.904;2023-05-23T03:23:38;99609.25;;;16.25;99.18
60489;BME280;46331;49.252;8.904;2023-05-23T03:24:18;99611.38;;;16.23;98.46
60489;BME280;46331;49.252;8.904;2023-05-23T03:24:59;99612.47;;;16.22;98.44
60489;BME280;46331;49.252;8.904;2023-05-23T03:25:41;99613.28;;;16.22;98.62
60489;BME280;46331;49.252;8.904;2023-05-23T03:26:22;99613.53;;;16.21;98.40
60489;BME280;46331;49.252;8.904;2023-05-23T03:27:04;99617.84;;;16.22;98.32
60489;BME280;46331;49.252;8.904;2023-05-23T03:27:45;99613.81;;;16.19;98.03
60489;BME280;46331;49.252;8.904;2023-05-23T03:28:26;99618.66;;;16.17;98.45
60489;BME280;46331;49.252;8.904;2023-05-23T03:29:06;99617.06;;;16.16;98.40
60489;BME280;46331;49.252;8.904;2023-05-23T03:29:47;99617.88;;;16.12;98.17
60489;BME280;46331;49.252;8.904;2023-05-23T03:30:27;99617.38;;;16.09;98.51
60489;BME280;46331;49.252;8.904;2023-05-23T03:31:08;99615.75;;;16.08;98.35
60489;BME280;46331;49.252;8.904;2023-05-23T03:31:48;99623.28;;;16.06;98.33
60489;BME280;46331;49.252;8.904;2023-05-23T03:32:29;99624.34;;;16.05;98.59
60489;BME280;46331;49.252;8.904;2023-05-23T03:33:09;99627.56;;;16.02;98.26
60489;BME280;46331;49.252;8.904;2023-05-23T03:33:51;99627.84;;;16.01;98.65
60489;BME280;46331;49.252;8.904;2023-05-23T03:34:33;99621.41;;;16.02;98.78
60489;BME280;46331;49.252;8.904;2023-05-23T03:35:17;99622.75;;;15.99;98.20
60489;BME280;46331;49.252;8.904;2023-05-23T03:35:57;99623.56;;;16.00;98.43
60489;BME280;46331;49.252;8.904;2023-05-23T03:36:38;99623.81;;;15.98;98.28
60489;BME280;46331;49.252;8.904;2023-05-23T03:37:19;99629.44;;;15.97;98.48
60489;BME280;46331;49.252;8.904;2023-05-23T03:38:00;99624.38;;;15.95;98.41
60489;BME280;46331;49.252;8.904;2023-05-23T03:38:40;99628.94;;;15.95;99.01
60489;BME280;46331;49.252;8.904;2023-05-23T03:39:21;99632.16;;;15.91;98.30
60489;BME280;46331;49.252;8.904;2023-05-23T03:40:02;99625.19;;;15.90;98.51
60489;BME280;46331;49.252;8.904;2023-05-23T03:40:44;99628.16;;;15.89;98.82
60489;BME280;46331;49.252;8.904;2023-05-23T03:41:25;99628.69;;;15.86;98.88
60489;BME280;46331;49.252;8.904;2023-05-23T03:42:06;99624.16;;;15.86;99.34
60489;BME280;46331;49.252;8.904;2023-05-23T03:42:48;99636.44;;;15.87;99.36
60489;BME280;46331;49.252;8.904;2023-05-23T03:43:29;99623.91;;;15.88;99.25
60489;BME280;46331;49.252;8.904;2023-05-23T03:44:09;99623.34;;;15.86;99.13